sensor_id;sensor_type;location;lat;lon;timestamp;pressure;altitude;pressure_sealevel;temperature;humidity
32492;BME280;20605;49.742;18.802;2023-04-06T00:02:08;98103.11;;;-3.11;100.00
32492;BME280;20605;49.742;18.802;2023-04-06T00:04:33;98101.33;;;-3.14;100.00
32492;BME280;20605;49.742;18.802;2023-04-06T00:06:59;98099.88;;;-3.17;100.00
32492;BME280;20605;49.742;18.802;2023-04-06T00:09:25;98098.80;;;-3.19;100.00
32492;BME280;20605;49.742;18.802;2023-04-06T00:11:51;98096.73;;;-3.20;100.00
32492;BME280;20605;49.742;18.802;2023-04-06T00:14:17;98097.52;;;-3.22;100.00
32492;BME280;20605;49.742;18.802;2023-04-06T00:16:43;98098.32;;;-3.24;100.00
32492;BME280;20605;49.742;18.802;2023-04-06T00:19:08;98097.30;;;-3.24;100.00
32492;BME280;20605;49.742;18.802;2023-04-06T00:21:34;98096.84;;;-3.22;100.00
32492;BME280;20605;49.742;18.802;2023-04-06T00:24:00;98094.70;;;-3.20;100.00
32492;BME280;20605;49.742;18.802;2023-04-06T00:26:26;98095.14;;;-3.16;100.00
32492;BME280;20605;49.742;18.802;2023-04-06T00:28:53;98090.95;;;-3.15;100.00
32492;BME280;20605;49.742;18.802;2023-04-06T00:31:19;98089.70;;;-3.11;100.00
32492;BME280;20605;49.742;18.802;2023-04-06T00:33:44;98087.74;;;-3.07;100.00
32492;BME280;20605;49.742;18.802;2023-04-06T00:36:10;98084.70;;;-3.07;100.00
32492;BME280;20605;49.742;18.802;2023-04-06T00:38:36;98085.30;;;-3.10;100.00
32492;BME280;20605;49.742;18.802;2023-04-06T00:41:03;98084.25;;;-3.11;100.00
32492;BME280;20605;49.742;18.802;2023-04-06T00:43:30;98082.00;;;-3.12;100.00
32492;BME280;20605;49.742;18.802;2023-04-06T00:45:56;98083.45;;;-3.15;100.00
32492;BME280;20605;49.742;18.802;2023-04-06T00:48:22;98081.45;;;-3.20;100.00
32492;BME280;20605;49.742;18.802;2023-04-06T00:50:48;98076.30;;;-3.22;100.00
32492;BME280;20605;49.742;18.802;2023-04-06T00:53:13;98077.00;;;-3.21;100.00
32492;BME280;20605;49.742;18.802;2023-04-06T00:55:40;98075.70;;;-3.19;100.00
32492;BME280;20605;49.742;18.802;2023-04-06T00:58:06;98079.09;;;-3.19;100.00
32492;BME280;20605;49.742;18.802;2023-04-06T01:00:39;98076.06;;;-3.18;100.00
32492;BME280;20605;49.742;18.802;2023-04-06T01:03:07;98074.45;;;-3.15;100.00
32492;BME280;20605;49.742;18.802;2023-04-06T01:05:39;98074.26;;;-3.16;100.00
32492;BME280;20605;49.742;18.802;2023-04-06T01:08:10;98076.29;;;-3.16;100.00
32492;BME280;20605;49.742;18.802;2023-04-06T01:10:36;98078.31;;;-3.17;100.00
32492;BME280;20605;49.742;18.802;2023-04-06T01:13:11;98074.98;;;-3.21;100.00
32492;BME280;20605;49.742;18.802;2023-04-06T01:15:50;98075.38;;;-3.25;100.00
32492;BME280;20605;49.742;18.802;2023-04-06T01:18:29;98075.77;;;-3.30;100.00
32492;BME280;20605;49.742;18.802;2023-04-06T01:21:09;98076.30;;;-3.35;100.00
32492;BME280;20605;49.742;18.802;2023-04-06T01:23:45;98075.23;;;-3.37;100.00
32492;BME280;20605;49.742;18.802;2023-04-06T01:26:15;98069.92;;;-3.38;100.00
32492;BME280;20605;49.742;18.802;2023-04-06T01:28:41;98070.73;;;-3.40;100.00
32492;BME280;20605;49.742;18.802;2023-04-06T01:31:18;98074.13;;;-3.40;100.00
32492;BME280;20605;49.742;18.802;2023-04-06T01:33:48;98075.41;;;-3.37;100.00
32492;BME280;20605;49.742;18.802;2023-04-06T01:36:18;98074.11;;;-3.35;100.00
32492;BME280;20605;49.742;18.802;2023-04-06T01:38:48;98074.13;;;-3.34;100.00
32492;BME280;20605;49.742;18.802;2023-04-06T01:41:15;98070.25;;;-3.33;100.00
32492;BME280;20605;49.742;18.802;2023-04-06T01:43:50;98064.57;;;-3.36;100.00
32492;BME280;20605;49.742;18.802;2023-04-06T01:46:23;98066.41;;;-3.37;100.00
32492;BME280;20605;49.742;18.802;2023-04-06T01:48:49;98068.97;;;-3.36;100.00
32492;BME280;20605;49.742;18.802;2023-04-06T01:51:29;98071.34;;;-3.37;100.00
32492;BME280;20605;49.742;18.802;2023-04-06T01:53:58;98072.51;;;-3.37;100.00
32492;BME280;20605;49.742;18.802;2023-04-06T01:56:33;98071.06;;;-3.40;100.00
32492;BME280;20605;49.742;18.802;2023-04-06T01:59:06;98072.91;;;-3.47;100.00
32492;BME280;20605;49.742;18.802;2023-04-06T02:01:36;98073.46;;;-3.51;100.00
32492;BME280;20605;49.742;18.802;2023-04-06T02:04:02;98076.61;;;-3.54;100.00
32492;BME280;20605;49.742;18.802;2023-04-06T02:06:28;98070.62;;;-3.56;100.00
32492;BME280;20605;49.742;18.802;2023-04-06T02:08:54;98069.14;;;-3.54;100.00
32492;BME280;20605;49.742;18.802;2023-04-06T02:11:19;98064.17;;;-3.50;100.00
32492;BME280;20605;49.742;18.802;2023-04-06T02:13:48;98061.61;;;-3.44;100.00
32492;BME280;20605;49.742;18.802;2023-04-06T02:16:15;98063.39;;;-3.41;100.00
32492;BME280;20605;49.742;18.802;2023-04-06T02:18:42;98063.69;;;-3.37;100.00
32492;BME280;20605;49.742;18.802;2023-04-06T02:21:08;98063.79;;;-3.33;100.00
32492;BME280;20605;49.742;18.802;2023-04-06T02:23:35;98068.85;;;-3.34;100.00
32492;BME280;20605;49.742;18.802;2023-04-06T02:26:00;98067.77;;;-3.36;100.00
32492;BME280;20605;49.742;18.802;2023-04-06T02:28:26;98068.94;;;-3.43;100.00
32492;BME280;20605;49.742;18.802;2023-04-06T02:30:52;98068.86;;;-3.52;100.00
32492;BME280;20605;49.742;18.802;2023-04-06T02:33:19;98067.85;;;-3.58;100.00
32492;BME280;20605;49.742;18.802;2023-04-06T02:35:46;98068.64;;;-3.66;100.00
32492;BME280;20605;49.742;18.802;2023-04-06T02:38:12;98069.59;;;-3.75;100.00
32492;BME280;20605;49.742;18.802;2023-04-06T02:40:38;98067.37;;;-3.81;100.00
32492;BME280;20605;49.742;18.802;2023-04-06T02:43:24;98065.36;;;-3.80;100.00
32492;BME280;20605;49.742;18.802;2023-04-06T02:45:53;98063.66;;;-3.74;100.00
32492;BME280;20605;49.742;18.802;2023-04-06T02:48:20;98063.64;;;-3.70;100.00
32492;BME280;20605;49.742;18.802;2023-04-06T02:50:46;98061.54;;;-3.66;100.00
32492;BME280;20605;49.742;18.802;2023-04-06T02:53:11;98065.67;;;-3.64;100.00
32492;BME280;20605;49.742;18.802;2023-04-06T02:55:38;98065.95;;;-3.65;100.00
32492;BME280;20605;49.742;18.802;2023-04-06T02:58:04;98066.05;;;-3.74;100.00
32492;BME280;20605;49.742;18.802;2023-04-06T03:00:37;98065.13;;;-3.77;100.00
32492;BME280;20605;49.742;18.802;2023-04-06T03:03:03;98064.38;;;-3.79;100.00
32492;BME280;20605;49.742;18.802;2023-04-06T03:05:29;98065.73;;;-3.79;100.00
32492;BME280;20605;49.742;18.802;2023-04-06T03:07:56;98061.89;;;-3.83;100.00
32492;BME280;20605;49.742;18.802;2023-04-06T03:10:42;98065.91;;;-3.84;100.00
32492;BME280;20605;49.742;18.802;2023-04-06T03:13:08;98065.57;;;-3.84;100.00
32492;BME280;20605;49.742;18.802;2023-04-06T03:15:52;98065.52;;;-3.86;100.00
32492;BME280;20605;49.742;18.802;2023-04-06T03:18:24;98067.47;;;-3.90;100.00
32492;BME280;20605;49.742;18.802;2023-04-06T03:20:52;98071.58;;;-3.88;100.00
32492;BME280;20605;49.742;18.802;2023-04-06T03:23:23;98069.94;;;-3.85;100.00
32492;BME280;20605;49.742;18.802;2023-04-06T03:25:53;98075.54;;;-3.86;100.00
32492;BME280;20605;49.742;18.802;2023-04-06T03:28:19;98071.61;;;-3.87;100.00
32492;BME280;20605;49.742;18.802;2023-04-06T03:30:52;98072.79;;;-3.87;100.00
32492;BME280;20605;49.742;18.802;2023-04-06T03:33:24;98074.22;;;-3.91;100.00
32492;BME280;20605;49.742;18.802;2023-04-06T03:35:53;98074.89;;;-3.98;100.00
32492;BME280;20605;49.742;18.802;2023-04-06T03:38:21;98075.35;;;-4.00;100.00
32492;BME280;20605;49.742;18.802;2023-04-06T03:40:47;98079.92;;;-4.05;100.00
32492;BME280;20605;49.742;18.802;2023-04-06T03:43:12;98078.11;;;-4.09;100.00
32492;BME280;20605;49.742;18.802;2023-04-06T03:45:39;98077.00;;;-4.12;100.00
32492;BME280;20605;49.742;18.802;2023-04-06T03:48:06;98079.33;;;-4.14;100.00
32492;BME280;20605;49.742;18.802;2023-04-06T03:50:33;98079.77;;;-4.16;100.00
32492;BME280;20605;49.742;18.802;2023-04-06T03:52:59;98083.73;;;-4.19;100.00
32492;BME280;20605;49.742;18.802;2023-04-06T03:55:28;98086.02;;;-4.22;100.00
32492;BME280;20605;49.742;18.802;2023-04-06T03:57:55;98087.91;;;-4.21;100.00
32492;BME280;20605;49.742;18.802;2023-04-06T04:00:24;98090.43;;;-4.22;100.00
32492;BME280;20605;49.742;18.802;2023-04-06T04:02:50;98091.23;;;-4.23;100.00
32492;BME280;20605;49.742;18.802;2023-04-06T04:05:16;98091.13;;;-4.27;100.00
32492;BME280;20605;49.742;18.802;2023-04-06T04:07:42;98093.45;;;-4.34;100.00
32492;BME280;20605;49.742;18.802;2023-04-06T04:10:08;98095.39;;;-4.37;100.00
32492;BME280;20605;49.742;18.802;2023-04-06T04:12:34;98093.23;;;-4.41;100.00
32492;BME280;20605;49.742;18.802;2023-04-06T04:15:00;98092.34;;;-4.42;100.00
32492;BME280;20605;49.742;18.802;2023-04-06T04:17:26;98090.71;;;-4.40;100.00
32492;BME280;20605;49.742;18.802;2023-04-06T04:19:52;98090.61;;;-4.38;100.00
32492;BME280;20605;49.742;18.802;2023-04-06T04:22:18;98095.20;;;-4.38;100.00
32492;BME280;20605;49.742;18.802;2023-04-06T04:24:44;98095.19;;;-4.38;100.00
32492;BME280;20605;49.742;18.802;2023-04-06T04:27:10;98096.16;;;-4.34;100.00
32492;BME280;20605;49.742;18.802;2023-04-06T04:29:36;98092.72;;;-4.30;100.00
32492;BME280;20605;49.742;18.802;2023-04-06T04:32:05;98096.73;;;-4.27;100.00
32492;BME280;20605;49.742;18.802;2023-04-06T04:34:31;98097.68;;;-4.23;100.00
32492;BME280;20605;49.742;18.802;2023-04-06T04:36:57;98094.74;;;-4.19;100.00
32492;BME280;20605;49.742;18.802;2023-04-06T04:39:33;98094.58;;;-4.14;100.00
32492;BME280;20605;49.742;18.802;2023-04-06T04:42:04;98094.21;;;-4.09;100.00
32492;BME280;20605;49.742;18.802;2023-04-06T04:44:31;98099.59;;;-4.05;100.00
32492;BME280;20605;49.742;18.802;2023-04-06T04:46:57;98098.30;;;-4.03;100.00
32492;BME280;20605;49.742;18.802;2023-04-06T04:49:28;98097.19;;;-4.01;100.00
32492;BME280;20605;49.742;18.802;2023-04-06T04:51:54;98096.39;;;-3.99;100.00
32492;BME280;20605;49.742;18.802;2023-04-06T04:54:31;98097.28;;;-3.91;100.00
32492;BME280;20605;49.742;18.802;2023-04-06T04:56:57;98102.09;;;-3.82;100.00
32492;BME280;20605;49.742;18.802;2023-04-06T04:59:35;98103.42;;;-3.72;100.00
32492;BME280;20605;49.742;18.802;2023-04-06T05:02:07;98103.77;;;-3.66;100.00
32492;BME280;20605;49.742;18.802;2023-04-06T05:04:41;98106.45;;;-3.55;100.00
32492;BME280;20605;49.742;18.802;2023-04-06T05:07:08;98105.61;;;-3.49;100.00
32492;BME280;20605;49.742;18.802;2023-04-06T05:09:37;98104.33;;;-3.46;100.00
32492;BME280;20605;49.742;18.802;2023-04-06T05:12:03;98104.94;;;-3.37;100.00
32492;BME280;20605;49.742;18.802;2023-04-06T05:14:31;98105.30;;;-3.24;100.00
32492;BME280;20605;49.742;18.802;2023-04-06T05:16:59;98102.14;;;-3.09;100.00
32492;BME280;20605;49.742;18.802;2023-04-06T05:19:25;98099.45;;;-2.95;100.00
32492;BME280;20605;49.742;18.802;2023-04-06T05:21:50;98101.42;;;-2.84;100.00
32492;BME280;20605;49.742;18.802;2023-04-06T05:24:17;98098.16;;;-2.79;100.00
32492;BME280;20605;49.742;18.802;2023-04-06T05:26:43;98097.92;;;-2.68;100.00
32492;BME280;20605;49.742;18.802;2023-04-06T05:29:13;98095.93;;;-2.51;100.00
32492;BME280;20605;49.742;18.802;2023-04-06T05:31:39;98094.54;;;-2.24;100.00
32492;BME280;20605;49.742;18.802;2023-04-06T05:34:06;98090.55;;;-1.97;100.00
32492;BME280;20605;49.742;18.802;2023-04-06T05:36:35;98093.37;;;-1.85;100.00
32492;BME280;20605;49.742;18.802;2023-04-06T05:39:05;98091.22;;;-1.75;100.00
32492;BME280;20605;49.742;18.802;2023-04-06T05:41:40;98090.12;;;-1.54;100.00
32492;BME280;20605;49.742;18.802;2023-04-06T05:44:08;98087.11;;;-1.34;100.00
32492;BME280;20605;49.742;18.802;2023-04-06T05:46:34;98089.69;;;-1.23;100.00
32492;BME280;20605;49.742;18.802;2023-04-06T05:49:00;98088.50;;;-0.95;100.00
32492;BME280;20605;49.742;18.802;2023-04-06T05:51:29;98090.46;;;-0.60;100.00
32492;BME280;20605;49.742;18.802;2023-04-06T05:53:55;98091.96;;;-0.32;100.00
32492;BME280;20605;49.742;18.802;2023-04-06T05:56:21;98085.58;;;-0.02;100.00
32492;BME280;20605;49.742;18.802;2023-04-06T05:58:47;98083.42;;;0.29;100.00
32492;BME280;20605;49.742;18.802;2023-04-06T06:01:15;98084.96;;;0.70;100.00
32492;BME280;20605;49.742;18.802;2023-04-06T06:03:44;98081.08;;;1.05;100.00
32492;BME280;20605;49.742;18.802;2023-04-06T06:06:10;98077.16;;;1.45;100.00
32492;BME280;20605;49.742;18.802;2023-04-06T06:08:46;98072.36;;;1.90;100.00
32492;BME280;20605;49.742;18.802;2023-04-06T06:11:13;98069.75;;;2.40;100.00
32492;BME280;20605;49.742;18.802;2023-04-06T06:13:40;98064.59;;;2.89;100.00
32492;BME280;20605;49.742;18.802;2023-04-06T06:16:06;98063.48;;;3.31;100.00
32492;BME280;20605;49.742;18.802;2023-04-06T06:18:34;98064.71;;;3.64;100.00
32492;BME280;20605;49.742;18.802;2023-04-06T06:21:00;98064.36;;;3.82;100.00
32492;BME280;20605;49.742;18.802;2023-04-06T06:23:26;98062.92;;;4.04;100.00
32492;BME280;20605;49.742;18.802;2023-04-06T06:25:52;98063.88;;;4.38;100.00
32492;BME280;20605;49.742;18.802;2023-04-06T06:28:19;98062.52;;;4.82;100.00
32492;BME280;20605;49.742;18.802;2023-04-06T06:30:45;98064.89;;;5.17;99.16
32492;BME280;20605;49.742;18.802;2023-04-06T06:33:13;98065.77;;;5.37;99.22
32492;BME280;20605;49.742;18.802;2023-04-06T06:35:39;98063.30;;;5.46;98.84
32492;BME280;20605;49.742;18.802;2023-04-06T06:38:05;98063.32;;;5.43;97.63
32492;BME280;20605;49.742;18.802;2023-04-06T06:40:31;98063.98;;;5.47;97.67
32492;BME280;20605;49.742;18.802;2023-04-06T06:42:58;98065.16;;;5.72;97.03
32492;BME280;20605;49.742;18.802;2023-04-06T06:45:32;98062.98;;;5.85;96.69
32492;BME280;20605;49.742;18.802;2023-04-06T06:47:59;98062.39;;;5.98;96.34
32492;BME280;20605;49.742;18.802;2023-04-06T06:50:25;98060.83;;;6.17;95.59
32492;BME280;20605;49.742;18.802;2023-04-06T06:52:51;98059.11;;;6.32;94.91
32492;BME280;20605;49.742;18.802;2023-04-06T06:55:17;98055.64;;;6.49;93.99
32492;BME280;20605;49.742;18.802;2023-04-06T06:57:45;98056.64;;;6.79;94.50
32492;BME280;20605;49.742;18.802;2023-04-06T07:00:14;98053.61;;;7.24;93.58
32492;BME280;20605;49.742;18.802;2023-04-06T07:02:41;98054.83;;;7.47;92.63
32492;BME280;20605;49.742;18.802;2023-04-06T07:05:07;98055.89;;;7.87;93.09
32492;BME280;20605;49.742;18.802;2023-04-06T07:07:33;98058.84;;;8.26;91.13
32492;BME280;20605;49.742;18.802;2023-04-06T07:10:00;98057.39;;;8.58;91.05
32492;BME280;20605;49.742;18.802;2023-04-06T07:12:26;98053.59;;;8.99;90.61
32492;BME280;20605;49.742;18.802;2023-04-06T07:14:52;98055.50;;;9.37;89.32
32492;BME280;20605;49.742;18.802;2023-04-06T07:17:20;98054.23;;;9.55;87.68
32492;BME280;20605;49.742;18.802;2023-04-06T07:19:46;98054.66;;;9.58;87.05
32492;BME280;20605;49.742;18.802;2023-04-06T07:22:12;98058.72;;;9.48;84.58
32492;BME280;20605;49.742;18.802;2023-04-06T07:24:38;98058.34;;;9.19;83.35
32492;BME280;20605;49.742;18.802;2023-04-06T07:27:03;98058.27;;;9.00;82.49
32492;BME280;20605;49.742;18.802;2023-04-06T07:29:31;98058.10;;;8.65;80.81
32492;BME280;20605;49.742;18.802;2023-04-06T07:31:57;98058.83;;;8.27;79.93
32492;BME280;20605;49.742;18.802;2023-04-06T07:34:23;98060.71;;;7.88;78.99
32492;BME280;20605;49.742;18.802;2023-04-06T07:36:49;98062.90;;;7.61;78.32
32492;BME280;20605;49.742;18.802;2023-04-06T07:39:15;98068.44;;;7.50;77.64
32492;BME280;20605;49.742;18.802;2023-04-06T07:41:41;98067.94;;;7.49;77.56
32492;BME280;20605;49.742;18.802;2023-04-06T07:44:07;98065.96;;;7.54;77.86
32492;BME280;20605;49.742;18.802;2023-04-06T07:46:33;98063.45;;;7.80;77.11
32492;BME280;20605;49.742;18.802;2023-04-06T07:49:00;98062.70;;;7.93;76.70
32492;BME280;20605;49.742;18.802;2023-04-06T07:51:28;98061.73;;;7.99;75.91
32492;BME280;20605;49.742;18.802;2023-04-06T07:53:55;98055.70;;;7.98;75.99
32492;BME280;20605;49.742;18.802;2023-04-06T07:56:21;98061.63;;;8.15;76.03
32492;BME280;20605;49.742;18.802;2023-04-06T07:58:48;98055.30;;;8.50;75.24
32492;BME280;20605;49.742;18.802;2023-04-06T08:01:14;98059.95;;;8.68;72.40
32492;BME280;20605;49.742;18.802;2023-04-06T08:03:40;98056.97;;;8.79;73.18
32492;BME280;20605;49.742;18.802;2023-04-06T08:06:06;98058.98;;;8.99;71.70
32492;BME280;20605;49.742;18.802;2023-04-06T08:08:31;98057.65;;;9.11;71.18
32492;BME280;20605;49.742;18.802;2023-04-06T08:10:57;98056.56;;;9.29;70.42
32492;BME280;20605;49.742;18.802;2023-04-06T08:13:23;98057.45;;;9.50;68.86
32492;BME280;20605;49.742;18.802;2023-04-06T08:15:49;98054.35;;;9.64;67.76
32492;BME280;20605;49.742;18.802;2023-04-06T08:18:14;98053.03;;;9.96;66.70
32492;BME280;20605;49.742;18.802;2023-04-06T08:20:40;98049.73;;;10.80;68.43
32492;BME280;20605;49.742;18.802;2023-04-06T08:23:06;98045.88;;;11.88;66.50
32492;BME280;20605;49.742;18.802;2023-04-06T08:25:37;98041.31;;;12.88;65.43
32492;BME280;20605;49.742;18.802;2023-04-06T08:28:03;98035.27;;;13.68;64.05
32492;BME280;20605;49.742;18.802;2023-04-06T08:30:29;98033.37;;;14.38;62.00
32492;BME280;20605;49.742;18.802;2023-04-06T08:32:55;98035.32;;;14.77;59.38
32492;BME280;20605;49.742;18.802;2023-04-06T08:35:21;98036.63;;;14.55;58.01
32492;BME280;20605;49.742;18.802;2023-04-06T08:37:48;98033.95;;;14.28;59.06
32492;BME280;20605;49.742;18.802;2023-04-06T08:40:14;98030.60;;;15.00;59.30
32492;BME280;20605;49.742;18.802;2023-04-06T08:42:40;98029.45;;;15.65;57.53
32492;BME280;20605;49.742;18.802;2023-04-06T08:45:10;98028.58;;;15.58;56.32
32492;BME280;20605;49.742;18.802;2023-04-06T08:47:36;98025.23;;;15.69;55.38
32492;BME280;20605;49.742;18.802;2023-04-06T08:50:06;98030.73;;;15.57;54.95
32492;BME280;20605;49.742;18.802;2023-04-06T08:52:33;98035.23;;;15.51;54.70
32492;BME280;20605;49.742;18.802;2023-04-06T08:55:00;98025.55;;;15.67;55.36
32492;BME280;20605;49.742;18.802;2023-04-06T08:57:27;98024.62;;;15.42;54.34
32492;BME280;20605;49.742;18.802;2023-04-06T08:59:54;98026.94;;;14.61;52.49
32492;BME280;20605;49.742;18.802;2023-04-06T09:02:22;98022.14;;;13.68;51.61
32492;BME280;20605;49.742;18.802;2023-04-06T09:04:49;98025.70;;;12.52;52.12
32492;BME280;20605;49.742;18.802;2023-04-06T09:07:17;98028.91;;;11.70;53.43
32492;BME280;20605;49.742;18.802;2023-04-06T09:09:43;98027.50;;;11.49;54.70
32492;BME280;20605;49.742;18.802;2023-04-06T09:12:24;98027.53;;;11.03;54.92
32492;BME280;20605;49.742;18.802;2023-04-06T09:14:50;98028.93;;;10.23;54.41
32492;BME280;20605;49.742;18.802;2023-04-06T09:17:32;98030.09;;;9.49;55.69
32492;BME280;20605;49.742;18.802;2023-04-06T09:20:00;98025.59;;;8.80;55.81
32492;BME280;20605;49.742;18.802;2023-04-06T09:22:37;98028.60;;;8.24;57.15
32492;BME280;20605;49.742;18.802;2023-04-06T09:25:04;98028.59;;;7.86;58.25
32492;BME280;20605;49.742;18.802;2023-04-06T09:27:34;98027.54;;;7.58;59.46
32492;BME280;20605;49.742;18.802;2023-04-06T09:30:10;98030.27;;;7.37;59.54
32492;BME280;20605;49.742;18.802;2023-04-06T09:32:45;98024.27;;;7.11;60.98
32492;BME280;20605;49.742;18.802;2023-04-06T09:35:14;98020.42;;;7.03;61.58
32492;BME280;20605;49.742;18.802;2023-04-06T09:37:41;98016.09;;;6.92;61.56
32492;BME280;20605;49.742;18.802;2023-04-06T09:40:08;98019.23;;;6.76;61.43
32492;BME280;20605;49.742;18.802;2023-04-06T09:42:34;98014.92;;;6.62;62.09
32492;BME280;20605;49.742;18.802;2023-04-06T09:45:02;98021.14;;;6.49;62.34
32492;BME280;20605;49.742;18.802;2023-04-06T09:47:30;98020.29;;;6.35;62.10
32492;BME280;20605;49.742;18.802;2023-04-06T09:49:57;98019.83;;;6.12;62.69
32492;BME280;20605;49.742;18.802;2023-04-06T09:52:42;98019.75;;;5.85;62.97
32492;BME280;20605;49.742;18.802;2023-04-06T09:55:12;98025.06;;;5.47;63.82
32492;BME280;20605;49.742;18.802;2023-04-06T10:00:11;98018.98;;;5.10;65.56
32492;BME280;20605;49.742;18.802;2023-04-06T10:08:13;98014.61;;;4.93;67.00
32492;BME280;20605;49.742;18.802;2023-04-06T10:10:39;98015.04;;;4.79;67.27
32492;BME280;20605;49.742;18.802;2023-04-06T10:13:06;98014.74;;;4.71;67.64
32492;BME280;20605;49.742;18.802;2023-04-06T10:15:33;98010.10;;;4.71;67.95
32492;BME280;20605;49.742;18.802;2023-04-06T10:17:59;98009.41;;;4.71;67.78
32492;BME280;20605;49.742;18.802;2023-04-06T10:23:11;98006.99;;;4.72;68.49
32492;BME280;20605;49.742;18.802;2023-04-06T10:25:55;98003.66;;;4.83;68.90
32492;BME280;20605;49.742;18.802;2023-04-06T10:28:21;97993.80;;;4.95;69.00
32492;BME280;20605;49.742;18.802;2023-04-06T10:30:47;97995.27;;;5.04;68.98
32492;BME280;20605;49.742;18.802;2023-04-06T10:33:19;97995.05;;;5.12;69.06
32492;BME280;20605;49.742;18.802;2023-04-06T10:35:46;97992.20;;;5.22;69.05
32492;BME280;20605;49.742;18.802;2023-04-06T10:38:12;97988.84;;;5.32;69.13
32492;BME280;20605;49.742;18.802;2023-04-06T10:40:46;97980.60;;;5.50;69.67
32492;BME280;20605;49.742;18.802;2023-04-06T10:43:20;97975.70;;;5.77;69.64
32492;BME280;20605;49.742;18.802;2023-04-06T10:45:55;97973.08;;;6.01;68.98
32492;BME280;20605;49.742;18.802;2023-04-06T10:48:21;97966.92;;;6.12;68.67
32492;BME280;20605;49.742;18.802;2023-04-06T10:50:53;97978.16;;;5.92;68.01
32492;BME280;20605;49.742;18.802;2023-04-06T10:53:24;97981.20;;;5.61;68.32
32492;BME280;20605;49.742;18.802;2023-04-06T10:55:55;97975.93;;;5.32;68.75
32492;BME280;20605;49.742;18.802;2023-04-06T10:58:26;97972.80;;;5.17;69.25
32492;BME280;20605;49.742;18.802;2023-04-06T11:00:52;97980.25;;;5.11;69.68
32492;BME280;20605;49.742;18.802;2023-04-06T11:03:19;97980.67;;;5.02;69.63
32492;BME280;20605;49.742;18.802;2023-04-06T11:05:49;97980.84;;;5.02;69.96
32492;BME280;20605;49.742;18.802;2023-04-06T11:08:26;97978.09;;;5.00;70.31
32492;BME280;20605;49.742;18.802;2023-04-06T11:11:04;97974.79;;;5.06;70.63
32492;BME280;20605;49.742;18.802;2023-04-06T11:13:39;97974.40;;;5.12;70.78
32492;BME280;20605;49.742;18.802;2023-04-06T11:16:05;97973.64;;;5.19;71.24
32492;BME280;20605;49.742;18.802;2023-04-06T11:18:31;97978.50;;;5.15;70.80
32492;BME280;20605;49.742;18.802;2023-04-06T11:20:57;97976.73;;;4.99;71.04
32492;BME280;20605;49.742;18.802;2023-04-06T11:23:23;97970.73;;;4.93;71.51
32492;BME280;20605;49.742;18.802;2023-04-06T11:25:54;97973.16;;;4.92;71.78
32492;BME280;20605;49.742;18.802;2023-04-06T11:28:20;97971.08;;;4.94;72.06
32492;BME280;20605;49.742;18.802;2023-04-06T11:30:47;97978.58;;;5.05;72.28
32492;BME280;20605;49.742;18.802;2023-04-06T11:33:21;97969.71;;;5.17;72.14
32492;BME280;20605;49.742;18.802;2023-04-06T11:35:48;97970.52;;;5.20;71.98
32492;BME280;20605;49.742;18.802;2023-04-06T11:38:14;97967.48;;;5.15;71.83
32492;BME280;20605;49.742;18.802;2023-04-06T11:40:40;97967.40;;;5.03;71.70
32492;BME280;20605;49.742;18.802;2023-04-06T11:43:06;97966.45;;;4.92;72.25
32492;BME280;20605;49.742;18.802;2023-04-06T11:45:41;97965.29;;;4.84;72.63
32492;BME280;20605;49.742;18.802;2023-04-06T11:48:18;97961.55;;;4.78;72.84
32492;BME280;20605;49.742;18.802;2023-04-06T11:50:46;97959.88;;;4.71;73.05
32492;BME280;20605;49.742;18.802;2023-04-06T11:53:14;97958.41;;;4.54;73.17
32492;BME280;20605;49.742;18.802;2023-04-06T11:55:39;97955.90;;;4.41;73.64
32492;BME280;20605;49.742;18.802;2023-04-06T11:58:06;97960.23;;;4.38;74.00
32492;BME280;20605;49.742;18.802;2023-04-06T12:00:32;97956.56;;;4.46;74.48
32492;BME280;20605;49.742;18.802;2023-04-06T12:03:00;97953.63;;;4.50;74.18
32492;BME280;20605;49.742;18.802;2023-04-06T12:05:26;97950.38;;;4.47;74.70
32492;BME280;20605;49.742;18.802;2023-04-06T12:07:52;97949.19;;;4.44;74.61
32492;BME280;20605;49.742;18.802;2023-04-06T12:10:18;97942.65;;;4.44;74.73
32492;BME280;20605;49.742;18.802;2023-04-06T12:12:44;97947.32;;;4.38;75.17
32492;BME280;20605;49.742;18.802;2023-04-06T12:15:10;97945.08;;;4.41;75.46
32492;BME280;20605;49.742;18.802;2023-04-06T12:17:36;97948.83;;;4.47;75.39
32492;BME280;20605;49.742;18.802;2023-04-06T12:20:02;97942.32;;;4.41;74.89
32492;BME280;20605;49.742;18.802;2023-04-06T12:22:28;97943.58;;;4.27;75.19
32492;BME280;20605;49.742;18.802;2023-04-06T12:24:54;97940.34;;;4.23;75.62
32492;BME280;20605;49.742;18.802;2023-04-06T12:27:20;97946.52;;;4.23;76.04
32492;BME280;20605;49.742;18.802;2023-04-06T12:29:47;97942.43;;;4.16;76.03
32492;BME280;20605;49.742;18.802;2023-04-06T12:32:12;97941.95;;;4.06;76.34
32492;BME280;20605;49.742;18.802;2023-04-06T12:34:38;97939.56;;;4.04;77.01
32492;BME280;20605;49.742;18.802;2023-04-06T12:37:04;97937.81;;;4.10;77.54
32492;BME280;20605;49.742;18.802;2023-04-06T12:39:30;97938.30;;;4.18;77.38
32492;BME280;20605;49.742;18.802;2023-04-06T12:41:56;97931.59;;;4.20;77.33
32492;BME280;20605;49.742;18.802;2023-04-06T12:44:23;97936.58;;;4.18;77.55
32492;BME280;20605;49.742;18.802;2023-04-06T12:46:48;97928.67;;;4.17;77.76
32492;BME280;20605;49.742;18.802;2023-04-06T12:49:15;97925.27;;;4.12;77.71
32492;BME280;20605;49.742;18.802;2023-04-06T12:51:44;97923.07;;;4.05;78.01
32492;BME280;20605;49.742;18.802;2023-04-06T12:54:10;97925.32;;;3.98;78.02
32492;BME280;20605;49.742;18.802;2023-04-06T12:56:37;97918.29;;;3.96;78.12
32492;BME280;20605;49.742;18.802;2023-04-06T12:59:03;97921.89;;;3.95;78.47
32492;BME280;20605;49.742;18.802;2023-04-06T13:01:28;97920.86;;;3.96;79.06
32492;BME280;20605;49.742;18.802;2023-04-06T13:03:56;97923.48;;;3.90;79.80
32492;BME280;20605;49.742;18.802;2023-04-06T13:06:21;97920.78;;;3.78;80.17